Time;durP1;ratioP1;P1;durP2;ratioP2;P2;SDS_P1;SDS_P2;PMS_P1;PMS_P2;Temp;Humidity;BMP_temperature;BMP_pressure;BME280_temperature;BME280_humidity;BME280_pressure;Samples;Min_cycle;Max_cycle;Signal;HPM_P1;HPM_P2
2022/06/25 00:01:28;;;;;;;0.50;0.20;;;14.80;99.90;;;;;;5103379;28;20538;-87
2022/06/25 00:03:56;;;;;;;0.30;0.20;;;14.80;99.90;;;;;;5099958;28;20532;-86
2022/06/25 00:06:22;;;;;;;0.30;0.20;;;14.80;99.90;;;;;;5101651;28;20818;-85
2022/06/25 00:08:50;;;;;;;0.30;0.20;;;14.80;99.90;;;;;;5106314;28;20471;-86
2022/06/25 00:14:07;;;;;;;0.37;0.23;;;14.90;99.90;;;;;;5100007;28;21159;-86
2022/06/25 00:16:36;;;;;;;0.30;0.20;;;14.80;99.90;;;;;;5104469;28;20599;-86
2022/06/25 00:19:03;;;;;;;0.30;0.20;;;14.80;99.90;;;;;;5102123;28;20586;-88
2022/06/25 00:21:31;;;;;;;0.30;0.20;;;14.80;99.90;;;;;;5105191;28;20557;-87
2022/06/25 00:23:58;;;;;;;0.30;0.20;;;14.80;99.90;;;;;;5105107;28;20461;-86
2022/06/25 00:26:25;;;;;;;0.40;0.27;;;14.80;99.90;;;;;;5106278;28;20510;-86
2022/06/25 00:28:52;;;;;;;0.30;0.20;;;14.80;99.90;;;;;;5104255;28;20454;-87
2022/06/25 00:31:19;;;;;;;0.30;0.20;;;14.80;99.90;;;;;;5103584;28;20467;-86
2022/06/25 00:33:47;;;;;;;0.40;0.20;;;14.70;99.90;;;;;;5099470;28;20491;-86
2022/06/25 00:36:14;;;;;;;0.30;0.20;;;14.70;99.90;;;;;;5104819;28;20463;-86
2022/06/25 00:38:41;;;;;;;0.40;0.20;;;14.70;99.90;;;;;;5102777;28;20546;-90
2022/06/25 00:41:08;;;;;;;0.30;0.20;;;14.70;99.90;;;;;;5100473;28;20980;-87
2022/06/25 00:43:39;;;;;;;0.30;0.20;;;14.60;99.90;;;;;;5100160;28;21209;-88
2022/06/25 00:46:06;;;;;;;0.30;0.20;;;14.60;99.90;;;;;;5105178;28;20468;-87
2022/06/25 00:48:33;;;;;;;0.30;0.20;;;14.60;99.90;;;;;;5101447;28;20547;-87
2022/06/25 00:51:05;;;;;;;0.40;0.30;;;14.60;99.90;;;;;;5104927;28;20496;-88
2022/06/25 00:53:33;;;;;;;0.40;0.20;;;14.60;99.90;;;;;;5093150;28;20492;-90
2022/06/25 00:56:01;;;;;;;0.30;0.20;;;14.60;99.90;;;;;;5096952;28;20516;-87
2022/06/25 00:58:33;;;;;;;0.40;0.23;;;14.60;99.90;;;;;;5100626;28;20502;-88
2022/06/25 01:01:00;;;;;;;0.50;0.30;;;14.60;99.90;;;;;;5096628;28;20467;-88
2022/06/25 01:03:28;;;;;;;0.50;0.30;;;14.60;99.90;;;;;;5103638;28;20538;-86
2022/06/25 01:05:55;;;;;;;0.37;0.27;;;14.60;99.90;;;;;;5098261;28;20560;-87
2022/06/25 01:08:24;;;;;;;0.40;0.30;;;14.50;99.90;;;;;;5095524;28;20524;-87
2022/06/25 01:10:51;;;;;;;1.30;0.50;;;14.60;99.90;;;;;;5095517;28;20534;-91
2022/06/25 01:13:21;;;;;;;0.30;0.20;;;14.60;99.90;;;;;;5101644;27;20550;-89
2022/06/25 01:15:48;;;;;;;0.50;0.20;;;14.50;99.90;;;;;;5097501;28;20459;-87
2022/06/25 01:18:16;;;;;;;0.40;0.30;;;14.50;99.90;;;;;;5092687;28;20513;-87
2022/06/25 01:20:43;;;;;;;0.40;0.30;;;14.60;99.90;;;;;;5090463;28;20505;-87
2022/06/25 01:23:12;;;;;;;0.30;0.20;;;14.60;99.90;;;;;;5090339;28;20462;-88
2022/06/25 01:25:41;;;;;;;0.47;0.20;;;14.60;99.90;;;;;;5096706;28;20575;-88
2022/06/25 01:28:09;;;;;;;0.30;0.30;;;14.60;99.90;;;;;;5094518;27;21009;-85
2022/06/25 01:30:37;;;;;;;0.30;0.20;;;14.60;99.90;;;;;;5093532;28;20988;-88
2022/06/25 01:33:06;;;;;;;0.30;0.20;;;14.60;99.90;;;;;;5086835;28;20495;-88
2022/06/25 01:35:33;;;;;;;0.30;0.20;;;14.60;99.90;;;;;;5092152;28;20469;-87
2022/06/25 01:38:00;;;;;;;0.40;0.30;;;14.60;99.90;;;;;;5089626;28;20482;-89
2022/06/25 01:40:31;;;;;;;0.60;0.37;;;14.60;99.90;;;;;;5089506;28;20484;-88
2022/06/25 01:43:01;;;;;;;0.30;0.20;;;14.60;99.90;;;;;;5095620;28;20469;-88
2022/06/25 01:45:30;;;;;;;0.30;0.20;;;14.60;99.90;;;;;;5090822;28;20458;-91
2022/06/25 01:47:57;;;;;;;0.40;0.30;;;14.50;99.90;;;;;;5091589;28;20576;-87
2022/06/25 01:50:24;;;;;;;0.70;0.30;;;14.50;99.90;;;;;;5092400;28;20963;-88
2022/06/25 01:52:51;;;;;;;0.40;0.20;;;14.50;99.90;;;;;;5094746;28;20527;-88
2022/06/25 01:55:19;;;;;;;0.30;0.20;;;14.50;99.90;;;;;;5103988;28;20457;-88
2022/06/25 01:57:48;;;;;;;0.30;0.20;;;14.50;99.90;;;;;;5103366;28;20473;-88
2022/06/25 02:00:18;;;;;;;0.30;0.20;;;14.50;99.90;;;;;;5101500;28;20470;-87
2022/06/25 02:02:46;;;;;;;0.40;0.20;;;14.50;99.90;;;;;;5100134;28;20500;-90
2022/06/25 02:05:14;;;;;;;0.40;0.20;;;14.50;99.90;;;;;;5102532;28;20999;-90
2022/06/25 02:07:42;;;;;;;0.37;0.20;;;14.50;99.90;;;;;;5101570;28;21139;-88
2022/06/25 02:10:10;;;;;;;0.30;0.20;;;14.50;99.90;;;;;;5103567;28;20462;-88
2022/06/25 02:12:37;;;;;;;0.30;0.20;;;14.50;99.90;;;;;;5090666;28;20967;-89
2022/06/25 02:15:07;;;;;;;0.30;0.20;;;14.50;99.90;;;;;;5099620;28;20469;-88
2022/06/25 02:17:34;;;;;;;0.33;0.20;;;14.50;99.90;;;;;;5096575;28;20482;-89
2022/06/25 02:20:01;;;;;;;0.70;0.30;;;14.50;99.90;;;;;;5101208;28;20565;-88
2022/06/25 02:22:28;;;;;;;0.30;0.30;;;14.50;99.90;;;;;;5099647;28;21067;-88
2022/06/25 02:24:56;;;;;;;0.30;0.20;;;14.40;99.90;;;;;;5103685;28;20526;-88
2022/06/25 02:27:23;;;;;;;0.30;0.20;;;14.40;99.90;;;;;;5102434;28;20461;-89
2022/06/25 02:29:50;;;;;;;0.40;0.30;;;14.40;99.90;;;;;;5100275;28;20516;-87
2022/06/25 02:32:18;;;;;;;0.40;0.30;;;14.40;99.90;;;;;;5085964;28;20466;-88
2022/06/25 02:34:45;;;;;;;0.93;0.20;;;14.40;99.90;;;;;;5102313;28;20466;-88
2022/06/25 02:37:12;;;;;;;0.30;0.20;;;14.40;99.90;;;;;;5091683;28;20486;-88
2022/06/25 02:39:39;;;;;;;0.30;0.20;;;14.40;99.90;;;;;;5100607;27;21044;-87
2022/06/25 02:42:06;;;;;;;0.40;0.23;;;14.40;99.90;;;;;;5098473;28;20557;-88
2022/06/25 02:44:33;;;;;;;0.30;0.20;;;14.40;99.90;;;;;;5102136;28;20850;-88
2022/06/25 02:47:00;;;;;;;0.40;0.30;;;14.40;99.90;;;;;;5100975;28;20465;-88
2022/06/25 02:49:29;;;;;;;0.30;0.20;;;14.40;99.90;;;;;;5104665;28;20469;-87
2022/06/25 02:51:56;;;;;;;0.40;0.30;;;14.40;99.90;;;;;;5100636;28;20478;-91
2022/06/25 02:54:23;;;;;;;0.40;0.20;;;14.40;99.90;;;;;;5085646;28;20505;-87
2022/06/25 02:59:39;;;;;;;0.30;0.20;;;14.40;99.90;;;;;;5095687;28;20487;-89
2022/06/25 03:02:06;;;;;;;0.30;0.20;;;14.40;99.90;;;;;;5097079;28;20519;-89
2022/06/25 03:04:35;;;;;;;0.33;0.23;;;14.30;99.90;;;;;;5103575;28;21164;-89
2022/06/25 03:07:02;;;;;;;0.30;0.20;;;14.30;99.90;;;;;;5103545;28;20916;-88
2022/06/25 03:09:29;;;;;;;0.30;0.20;;;14.30;99.90;;;;;;5102906;28;20497;-89
2022/06/25 03:11:56;;;;;;;0.30;0.20;;;14.40;99.90;;;;;;5087610;28;21212;-89
2022/06/25 03:14:23;;;;;;;0.40;0.20;;;14.40;99.90;;;;;;5087186;28;21097;-89
2022/06/25 03:16:50;;;;;;;0.40;0.20;;;14.40;99.90;;;;;;5096802;28;20458;-91
2022/06/25 03:19:17;;;;;;;0.30;0.20;;;14.40;99.90;;;;;;5104740;28;21075;-89
2022/06/25 03:21:46;;;;;;;0.30;0.20;;;14.40;99.90;;;;;;5106202;28;20579;-89
2022/06/25 03:24:13;;;;;;;0.30;0.20;;;14.40;99.90;;;;;;5107698;27;20455;-88
2022/06/25 03:26:40;;;;;;;0.30;0.20;;;14.40;99.90;;;;;;5106519;28;20479;-91
2022/06/25 03:29:07;;;;;;;0.40;0.30;;;14.40;99.90;;;;;;5106941;28;20504;-88
2022/06/25 03:31:34;;;;;;;0.40;0.30;;;14.40;99.90;;;;;;5103074;28;20727;-88
2022/06/25 03:34:01;;;;;;;0.30;0.20;;;14.40;99.90;;;;;;5101229;28;20527;-91
2022/06/25 03:36:28;;;;;;;0.40;0.30;;;14.40;99.90;;;;;;5106983;28;20515;-89
2022/06/25 03:38:56;;;;;;;0.40;0.30;;;14.40;99.90;;;;;;5107010;28;20484;-89
2022/06/25 03:41:36;;;;;;;0.40;0.20;;;14.50;99.90;;;;;;5102824;28;20936;-88
2022/06/25 03:44:04;;;;;;;0.30;0.20;;;14.50;99.90;;;;;;5105678;28;20573;-89
2022/06/25 03:46:32;;;;;;;0.30;0.20;;;14.40;99.90;;;;;;5104881;28;21186;-89
2022/06/25 03:48:59;;;;;;;1.13;0.30;;;14.40;99.90;;;;;;5105302;28;21058;-91
2022/06/25 03:51:27;;;;;;;0.40;0.20;;;14.40;99.90;;;;;;5105641;28;20520;-89
2022/06/25 03:53:54;;;;;;;0.93;0.27;;;14.40;99.90;;;;;;5105819;28;20487;-90
2022/06/25 03:56:22;;;;;;;0.40;0.20;;;14.40;99.90;;;;;;5106218;28;21226;-90
2022/06/25 03:58:51;;;;;;;0.30;0.20;;;14.50;99.90;;;;;;5107290;28;20544;-89
2022/06/25 04:01:18;;;;;;;0.90;0.23;;;14.50;99.90;;;;;;5099869;28;20645;-89
2022/06/25 04:03:45;;;;;;;0.30;0.20;;;14.50;99.90;;;;;;5105777;28;20453;-90
2022/06/25 04:06:12;;;;;;;0.30;0.20;;;14.60;99.90;;;;;;5105055;28;20493;-90
2022/06/25 04:08:39;;;;;;;0.30;0.20;;;14.60;99.90;;;;;;5106479;28;20450;-89
2022/06/25 04:11:06;;;;;;;0.30;0.20;;;14.60;99.90;;;;;;5100860;28;20523;-90
2022/06/25 04:13:34;;;;;;;0.40;0.20;;;14.70;99.90;;;;;;5105290;28;21148;-89
2022/06/25 04:16:01;;;;;;;1.27;0.30;;;14.60;99.90;;;;;;5104143;28;21213;-89
2022/06/25 04:18:28;;;;;;;0.40;0.20;;;14.60;99.90;;;;;;5106114;28;20519;-89
2022/06/25 04:20:55;;;;;;;0.30;0.20;;;14.60;99.90;;;;;;5103928;28;20558;-88
2022/06/25 04:23:22;;;;;;;0.30;0.20;;;14.60;99.90;;;;;;5103067;28;20490;-88
2022/06/25 04:25:49;;;;;;;0.40;0.20;;;14.70;99.90;;;;;;5103911;28;20462;-88
2022/06/25 04:31:02;;;;;;;0.80;0.23;;;14.70;99.90;;;;;;5105647;28;20893;-88
2022/06/25 04:33:29;;;;;;;2.73;0.30;;;14.70;99.90;;;;;;5104117;28;20475;-89
2022/06/25 04:35:55;;;;;;;0.30;0.20;;;14.70;99.90;;;;;;5105162;28;20824;-88
2022/06/25 04:38:22;;;;;;;0.40;0.30;;;14.70;99.90;;;;;;5104762;28;20515;-88
2022/06/25 04:40:50;;;;;;;0.30;0.20;;;14.80;99.90;;;;;;5105903;28;21012;-88
2022/06/25 04:43:17;;;;;;;0.60;0.30;;;14.80;99.90;;;;;;5103633;28;20519;-88
2022/06/25 04:45:44;;;;;;;0.40;0.20;;;14.80;99.90;;;;;;5105726;28;20471;-88
2022/06/25 04:48:12;;;;;;;0.30;0.20;;;14.80;99.90;;;;;;5105334;28;20467;-88
2022/06/25 04:50:39;;;;;;;0.40;0.20;;;14.90;99.90;;;;;;5102842;28;20979;-88
2022/06/25 04:53:06;;;;;;;2.10;0.57;;;14.90;99.90;;;;;;5100830;28;20455;-89
2022/06/25 04:55:33;;;;;;;0.30;0.20;;;14.90;99.90;;;;;;5122897;28;20444;-90
2022/06/25 04:58:00;;;;;;;0.40;0.30;;;15.00;99.90;;;;;;5118935;28;20470;-87
2022/06/25 05:00:27;;;;;;;0.30;0.20;;;15.00;99.90;;;;;;5115980;28;20486;-85
2022/06/25 05:02:54;;;;;;;0.50;0.20;;;15.10;99.90;;;;;;5112042;28;20518;-88
2022/06/25 05:05:23;;;;;;;0.40;0.27;;;15.20;99.90;;;;;;5103056;28;20518;-88
2022/06/25 05:07:49;;;;;;;0.40;0.30;;;15.20;99.90;;;;;;5106097;28;20540;-90
2022/06/25 05:10:16;;;;;;;0.30;0.20;;;15.10;99.90;;;;;;5104109;28;20555;-92
2022/06/25 05:15:27;;;;;;;0.30;0.30;;;15.10;99.90;;;;;;5104825;28;20461;-88
2022/06/25 05:17:54;;;;;;;0.60;0.37;;;15.20;99.90;;;;;;5098955;28;20475;-88
2022/06/25 05:20:23;;;;;;;0.40;0.20;;;15.20;99.90;;;;;;5098266;28;20499;-88
2022/06/25 05:22:50;;;;;;;3.63;0.50;;;15.20;99.90;;;;;;5115414;27;20458;-92
2022/06/25 05:25:17;;;;;;;0.43;0.30;;;15.30;99.90;;;;;;5102729;28;20517;-87
2022/06/25 05:27:44;;;;;;;0.40;0.30;;;15.30;99.90;;;;;;5103295;28;21067;-87
2022/06/25 05:30:11;;;;;;;0.30;0.20;;;15.30;99.90;;;;;;5104509;28;20559;-90
2022/06/25 05:32:38;;;;;;;0.40;0.30;;;15.30;99.90;;;;;;5094752;28;20476;-87
2022/06/25 05:35:06;;;;;;;0.40;0.30;;;15.30;99.90;;;;;;5093543;28;21048;-91
2022/06/25 05:37:34;;;;;;;0.80;0.30;;;15.30;99.90;;;;;;5103991;28;20519;-91
2022/06/25 05:40:01;;;;;;;1.33;0.30;;;15.40;99.90;;;;;;5101073;28;20568;-91
2022/06/25 05:42:28;;;;;;;0.30;0.20;;;15.30;99.90;;;;;;5097883;28;20465;-87
2022/06/25 05:44:55;;;;;;;0.50;0.30;;;15.40;99.90;;;;;;5101918;28;20464;-88
2022/06/25 05:47:22;;;;;;;0.40;0.20;;;15.40;99.90;;;;;;5104406;28;20465;-90
2022/06/25 05:49:49;;;;;;;0.60;0.30;;;15.40;99.90;;;;;;5098389;28;20536;-88
2022/06/25 05:52:16;;;;;;;3.60;0.30;;;15.50;99.90;;;;;;5105309;28;20583;-89
2022/06/25 05:54:44;;;;;;;0.40;0.27;;;15.50;99.90;;;;;;5102725;28;20468;-87
2022/06/25 05:57:11;;;;;;;0.40;0.30;;;15.50;99.90;;;;;;5097835;28;20459;-88
2022/06/25 05:59:38;;;;;;;0.40;0.20;;;15.60;99.90;;;;;;5101796;28;20573;-88
2022/06/25 06:02:05;;;;;;;0.33;0.20;;;15.70;99.90;;;;;;5100183;27;20940;-88
2022/06/25 06:04:32;;;;;;;0.40;0.30;;;15.70;99.90;;;;;;5101450;27;20551;-89
2022/06/25 06:07:00;;;;;;;0.37;0.20;;;15.80;99.90;;;;;;5104771;27;20561;-88
2022/06/25 06:09:28;;;;;;;0.40;0.33;;;15.80;99.90;;;;;;5100591;28;20545;-87
2022/06/25 06:11:56;;;;;;;0.40;0.30;;;15.70;99.90;;;;;;5102595;28;20463;-88
2022/06/25 06:14:24;;;;;;;0.40;0.23;;;15.80;99.90;;;;;;5101786;28;20464;-88
2022/06/25 06:16:51;;;;;;;0.40;0.30;;;15.90;99.90;;;;;;5098873;28;20472;-87
2022/06/25 06:19:18;;;;;;;0.37;0.20;;;16.00;99.90;;;;;;5103265;28;21074;-87
2022/06/25 06:21:45;;;;;;;0.37;0.23;;;16.00;99.90;;;;;;5100560;28;20462;-87
2022/06/25 06:24:13;;;;;;;0.40;0.40;;;16.00;99.90;;;;;;5103616;28;21162;-88
2022/06/25 06:26:40;;;;;;;0.50;0.40;;;16.20;99.90;;;;;;5106016;27;21032;-89
2022/06/25 06:29:09;;;;;;;0.40;0.30;;;16.30;99.90;;;;;;5102677;28;20504;-87
2022/06/25 06:31:36;;;;;;;0.40;0.20;;;16.40;99.90;;;;;;5101904;28;20544;-89
2022/06/25 06:34:03;;;;;;;0.40;0.30;;;16.40;99.90;;;;;;5102925;28;20549;-87
2022/06/25 06:36:31;;;;;;;0.70;0.40;;;16.40;99.90;;;;;;5104095;28;20517;-86
2022/06/25 06:38:58;;;;;;;0.40;0.30;;;16.70;99.90;;;;;;5097830;28;20489;-87
2022/06/25 06:41:25;;;;;;;0.40;0.30;;;16.80;99.90;;;;;;5105045;27;20474;-86
2022/06/25 06:43:51;;;;;;;0.40;0.30;;;16.90;99.90;;;;;;5095265;28;20464;-85
2022/06/25 06:46:20;;;;;;;0.60;0.30;;;16.90;99.90;;;;;;5104513;28;20492;-88
2022/06/25 06:48:47;;;;;;;0.50;0.30;;;17.10;99.90;;;;;;5101471;28;20462;-86
2022/06/25 06:51:14;;;;;;;0.40;0.30;;;17.10;99.90;;;;;;5101892;28;20553;-85
2022/06/25 06:53:41;;;;;;;0.87;0.30;;;17.10;99.90;;;;;;5103456;28;20503;-87
2022/06/25 06:56:08;;;;;;;0.37;0.20;;;17.10;99.90;;;;;;5102388;28;20545;-85
2022/06/25 06:58:35;;;;;;;0.40;0.30;;;17.20;99.90;;;;;;5100222;28;20466;-86
2022/06/25 07:01:02;;;;;;;0.40;0.30;;;17.40;99.90;;;;;;5103234;28;20594;-86
2022/06/25 07:03:30;;;;;;;0.30;0.20;;;17.60;99.90;;;;;;5100676;28;20510;-85
2022/06/25 07:05:57;;;;;;;0.50;0.30;;;17.60;99.90;;;;;;5091905;28;20533;-85
2022/06/25 07:08:24;;;;;;;0.50;0.30;;;17.80;99.90;;;;;;5096572;28;20541;-85
2022/06/25 07:10:51;;;;;;;0.70;0.37;;;17.80;99.90;;;;;;5097332;28;21205;-86
2022/06/25 07:13:18;;;;;;;0.50;0.30;;;17.90;99.90;;;;;;5099832;28;20488;-88
2022/06/25 07:15:45;;;;;;;0.40;0.30;;;17.80;99.90;;;;;;5094889;28;20469;-88
2022/06/25 07:18:12;;;;;;;0.37;0.27;;;17.60;99.90;;;;;;5101537;28;20438;-84
2022/06/25 07:20:55;;;;;;;0.40;0.30;;;17.70;99.90;;;;;;5091551;28;20649;-86
2022/06/25 07:23:22;;;;;;;0.40;0.30;;;17.70;99.90;;;;;;5100035;28;20476;-89
2022/06/25 07:25:49;;;;;;;0.90;0.37;;;17.80;99.90;;;;;;5095597;28;20507;-85
2022/06/25 07:28:16;;;;;;;0.40;0.30;;;17.80;99.90;;;;;;5100362;28;21024;-84
2022/06/25 07:30:43;;;;;;;0.60;0.30;;;17.90;99.90;;;;;;5095674;28;20584;-84
2022/06/25 07:33:10;;;;;;;0.40;0.30;;;17.90;99.90;;;;;;5097874;28;20458;-85
2022/06/25 07:35:37;;;;;;;0.40;0.30;;;17.90;99.90;;;;;;5102035;28;20650;-85
2022/06/25 07:38:05;;;;;;;0.40;0.20;;;17.90;99.90;;;;;;5088727;28;20459;-84
2022/06/25 07:40:32;;;;;;;0.40;0.33;;;18.00;99.90;;;;;;5095766;28;20606;-84
2022/06/25 07:43:00;;;;;;;0.50;0.50;;;18.10;99.90;;;;;;5092479;28;20538;-84
2022/06/25 07:45:27;;;;;;;0.40;0.30;;;18.10;99.90;;;;;;5095058;28;21025;-84
2022/06/25 07:47:54;;;;;;;0.83;0.83;;;18.10;99.90;;;;;;5095331;28;20948;-84
2022/06/25 07:53:22;;;;;;;0.40;0.30;;;18.10;99.90;;;;;;5046957;28;20452;-84
2022/06/25 07:55:49;;;;;;;0.40;0.30;;;18.10;99.90;;;;;;5056894;28;20485;-84
2022/06/25 07:58:16;;;;;;;0.40;0.30;;;18.00;99.90;;;;;;5074729;28;20519;-83
2022/06/25 08:00:43;;;;;;;0.53;0.30;;;17.90;99.90;;;;;;5099246;28;20541;-85
2022/06/25 08:03:10;;;;;;;2.43;0.30;;;18.00;99.90;;;;;;5102508;28;20466;-87
2022/06/25 08:05:37;;;;;;;0.40;0.30;;;17.90;99.90;;;;;;5092067;27;21196;-86
2022/06/25 08:08:04;;;;;;;0.60;0.30;;;18.00;99.90;;;;;;5105839;28;21117;-85
2022/06/25 08:10:33;;;;;;;0.40;0.30;;;17.90;99.90;;;;;;5103715;28;20572;-84
2022/06/25 08:13:00;;;;;;;0.50;0.40;;;17.90;99.90;;;;;;5091926;27;20901;-84
2022/06/25 08:15:27;;;;;;;0.40;0.30;;;17.90;99.90;;;;;;5097074;28;20519;-88
2022/06/25 08:17:54;;;;;;;0.40;0.30;;;17.90;99.90;;;;;;5099748;28;20523;-84
2022/06/25 08:20:21;;;;;;;0.60;0.30;;;18.00;99.90;;;;;;5100714;28;20537;-85
2022/06/25 08:22:48;;;;;;;0.40;0.30;;;18.00;99.90;;;;;;5106806;28;20453;-87
2022/06/25 08:25:15;;;;;;;0.43;0.30;;;17.90;99.90;;;;;;5105817;28;20475;-84
2022/06/25 08:27:50;;;;;;;0.60;0.30;;;18.10;99.90;;;;;;5102816;27;20561;-84
2022/06/25 08:30:18;;;;;;;0.40;0.30;;;18.30;99.90;;;;;;5100228;28;20503;-87
2022/06/25 08:32:45;;;;;;;0.40;0.40;;;18.30;99.90;;;;;;5099145;28;20998;-84
2022/06/25 08:35:12;;;;;;;0.40;0.40;;;18.30;99.90;;;;;;5097056;27;20538;-84
2022/06/25 08:37:40;;;;;;;0.70;0.40;;;18.40;99.90;;;;;;5096199;27;20492;-84
2022/06/25 08:40:09;;;;;;;0.50;0.30;;;18.50;99.90;;;;;;5097709;27;20488;-87
2022/06/25 08:42:36;;;;;;;4.03;0.50;;;18.70;99.90;;;;;;5102029;28;20517;-84
2022/06/25 08:45:05;;;;;;;0.40;0.30;;;19.00;99.90;;;;;;5100686;27;20458;-86
2022/06/25 08:47:32;;;;;;;0.80;0.37;;;19.10;99.90;;;;;;5101137;27;20561;-86
2022/06/25 08:49:59;;;;;;;0.40;0.37;;;19.20;99.90;;;;;;5098430;28;20560;-84
2022/06/25 08:52:28;;;;;;;0.40;0.30;;;19.30;99.90;;;;;;5102397;27;20471;-84
2022/06/25 08:54:56;;;;;;;0.60;0.40;;;19.60;99.90;;;;;;5102587;28;21033;-86
2022/06/25 08:57:23;;;;;;;0.50;0.40;;;19.80;99.90;;;;;;5092312;27;22021;-85
2022/06/25 08:59:50;;;;;;;0.70;0.30;;;19.90;99.90;;;;;;5097087;28;20563;-87
2022/06/25 09:02:19;;;;;;;0.50;0.30;;;20.30;99.90;;;;;;5099822;28;20470;-84
2022/06/25 09:04:45;;;;;;;1.67;0.70;;;20.40;99.90;;;;;;5099107;28;20729;-85
2022/06/25 09:07:13;;;;;;;0.40;0.30;;;20.70;99.90;;;;;;5103245;28;21183;-87
2022/06/25 09:09:41;;;;;;;0.40;0.30;;;20.70;99.90;;;;;;5105088;28;21079;-83
2022/06/25 09:12:09;;;;;;;0.40;0.30;;;20.70;99.90;;;;;;5103961;28;20457;-84
2022/06/25 09:14:38;;;;;;;0.50;0.40;;;20.80;99.90;;;;;;5105881;28;21014;-85
2022/06/25 09:17:08;;;;;;;0.40;0.30;;;20.70;99.90;;;;;;5105107;28;20502;-84
2022/06/25 09:19:38;;;;;;;0.50;0.30;;;20.80;99.90;;;;;;5099977;28;20504;-86
2022/06/25 09:22:06;;;;;;;0.50;0.33;;;20.90;99.90;;;;;;5094824;27;20585;-84
2022/06/25 09:24:45;;;;;;;0.90;0.40;;;21.10;99.90;;;;;;5092861;28;20892;-83
2022/06/25 09:27:13;;;;;;;0.40;0.30;;;21.30;99.90;;;;;;5097451;27;21033;-85
2022/06/25 09:29:42;;;;;;;0.50;0.40;;;21.50;99.90;;;;;;5101579;27;20944;-85
2022/06/25 09:32:10;;;;;;;0.50;0.30;;;21.60;99.90;;;;;;5098032;28;20457;-86
2022/06/25 09:34:43;;;;;;;0.50;0.40;;;21.70;99.90;;;;;;5090156;28;20560;-84
2022/06/25 09:37:25;;;;;;;2.30;0.40;;;21.80;98.00;;;;;;5097472;28;20476;-84
2022/06/25 09:39:53;;;;;;;0.70;0.40;;;21.80;98.80;;;;;;5090461;28;20896;-85
2022/06/25 09:42:24;;;;;;;0.40;0.30;;;22.10;99.90;;;;;;5104612;27;20833;-83
2022/06/25 09:45:01;;;;;;;0.40;0.30;;;21.90;98.10;;;;;;5103950;28;21134;-85
2022/06/25 09:47:28;;;;;;;0.40;0.30;;;21.60;98.80;;;;;;5094046;27;20878;-84
2022/06/25 09:50:13;;;;;;;0.70;0.30;;;21.90;99.50;;;;;;5087028;28;20523;-84
2022/06/25 09:52:50;;;;;;;0.43;0.33;;;22.10;97.60;;;;;;5089659;27;20450;-85
2022/06/25 09:55:17;;;;;;;0.50;0.40;;;22.40;98.00;;;;;;5097902;28;20462;-83
2022/06/25 09:57:45;;;;;;;0.50;0.30;;;22.20;97.60;;;;;;5104177;28;20940;-83
2022/06/25 10:00:14;;;;;;;0.50;0.30;;;22.40;98.00;;;;;;5101323;28;21200;-83
2022/06/25 10:02:42;;;;;;;0.60;0.37;;;22.60;97.80;;;;;;5094719;27;20466;-86
2022/06/25 10:05:12;;;;;;;0.50;0.40;;;22.70;98.60;;;;;;5095054;28;20523;-84
2022/06/25 10:10:24;;;;;;;0.50;0.40;;;22.20;97.50;;;;;;5094790;28;20537;-83
2022/06/25 10:12:52;;;;;;;0.50;0.33;;;22.70;98.10;;;;;;5107337;27;20441;-83
2022/06/25 10:15:21;;;;;;;0.40;0.30;;;23.20;98.00;;;;;;5112407;27;20500;-83
2022/06/25 10:17:49;;;;;;;0.60;0.40;;;23.40;95.90;;;;;;5103675;28;20450;-86
2022/06/25 10:20:19;;;;;;;0.50;0.40;;;23.60;96.60;;;;;;5104635;28;20490;-84
2022/06/25 10:22:48;;;;;;;0.57;0.43;;;23.70;94.20;;;;;;5095831;27;20459;-83
2022/06/25 10:25:17;;;;;;;0.40;0.40;;;23.40;93.70;;;;;;5096519;28;20484;-84
2022/06/25 10:27:46;;;;;;;2.40;0.30;;;23.50;94.30;;;;;;5099637;28;20560;-84
2022/06/25 10:30:15;;;;;;;0.40;0.30;;;23.60;94.30;;;;;;5102115;28;20553;-84
2022/06/25 10:32:44;;;;;;;0.43;0.30;;;23.40;94.10;;;;;;5101357;28;20458;-84
2022/06/25 10:35:30;;;;;;;0.40;0.30;;;23.30;94.90;;;;;;5098464;28;20473;-84
2022/06/25 10:38:03;;;;;;;1.83;0.47;;;23.10;95.50;;;;;;5100217;28;20552;-86
2022/06/25 10:40:31;;;;;;;0.43;0.30;;;23.00;95.30;;;;;;5096588;28;20508;-84
2022/06/25 10:43:00;;;;;;;0.47;0.40;;;23.40;96.70;;;;;;5099787;28;20458;-84
2022/06/25 10:45:51;;;;;;;0.50;0.30;;;23.40;95.10;;;;;;5102453;28;20462;-85
2022/06/25 10:48:23;;;;;;;0.50;0.30;;;23.60;95.80;;;;;;5101311;28;20499;-85
2022/06/25 10:50:52;;;;;;;0.50;0.30;;;23.80;96.20;;;;;;5097251;28;20497;-85
2022/06/25 10:53:23;;;;;;;0.80;0.40;;;23.90;95.00;;;;;;5103205;28;20520;-87
2022/06/25 10:56:16;;;;;;;0.50;0.30;;;23.80;94.60;;;;;;5106513;28;22463;-84
2022/06/25 10:58:48;;;;;;;0.40;0.30;;;24.10;94.80;;;;;;5101355;28;20442;-84
2022/06/25 11:01:28;;;;;;;0.50;0.37;;;24.40;94.40;;;;;;5089911;28;20478;-84
2022/06/25 11:03:56;;;;;;;0.50;0.40;;;24.20;93.40;;;;;;5086656;28;20459;-84
2022/06/25 11:06:26;;;;;;;0.40;0.40;;;23.90;93.20;;;;;;5090538;28;20539;-84
2022/06/25 11:08:54;;;;;;;0.60;0.40;;;23.80;93.70;;;;;;5097300;28;20453;-86
2022/06/25 11:11:27;;;;;;;0.40;0.30;;;23.40;94.00;;;;;;5093570;28;20451;-84
2022/06/25 11:13:54;;;;;;;0.50;0.37;;;23.20;94.30;;;;;;5091599;28;20462;-84
2022/06/25 11:16:21;;;;;;;0.73;0.30;;;23.40;94.80;;;;;;5088383;28;20466;-84
2022/06/25 11:18:51;;;;;;;0.50;0.43;;;23.50;93.60;;;;;;5088992;28;20959;-83
2022/06/25 11:21:30;;;;;;;1.43;0.50;;;23.50;95.10;;;;;;5085075;28;20568;-84
2022/06/25 11:24:22;;;;;;;0.40;0.30;;;23.40;95.50;;;;;;5090896;28;21279;-83
2022/06/25 11:29:38;;;;;;;0.40;0.40;;;24.20;92.90;;;;;;5089450;28;20461;-87
2022/06/25 11:32:06;;;;;;;1.03;0.33;;;24.40;93.30;;;;;;5089703;28;20500;-84
2022/06/25 11:34:33;;;;;;;0.50;0.40;;;24.60;92.90;;;;;;5095755;28;20471;-84
2022/06/25 11:37:04;;;;;;;0.50;0.40;;;24.70;94.20;;;;;;5089952;28;20458;-85
2022/06/25 11:39:32;;;;;;;0.40;0.37;;;24.70;92.30;;;;;;5104928;28;20541;-86
2022/06/25 11:41:59;;;;;;;0.77;0.43;;;24.60;93.90;;;;;;5106701;28;20482;-84
2022/06/25 11:44:27;;;;;;;0.40;0.30;;;25.00;93.50;;;;;;5106980;28;20446;-84
2022/06/25 11:46:55;;;;;;;0.50;0.30;;;24.80;92.70;;;;;;5103942;28;20475;-85
2022/06/25 11:49:22;;;;;;;0.50;0.40;;;24.70;92.60;;;;;;5099561;28;20454;-84
2022/06/25 11:51:52;;;;;;;0.50;0.40;;;24.10;92.40;;;;;;5105026;28;21398;-84
2022/06/25 11:54:24;;;;;;;0.50;0.40;;;23.40;92.70;;;;;;5106616;28;20502;-84
2022/06/25 11:56:53;;;;;;;0.50;0.30;;;22.70;93.20;;;;;;5106615;28;20470;-85
2022/06/25 11:59:27;;;;;;;0.67;0.67;;;22.30;94.80;;;;;;5099128;27;20490;-85
2022/06/25 12:01:55;;;;;;;0.50;0.30;;;22.10;94.70;;;;;;5102455;28;20505;-85
2022/06/25 12:04:23;;;;;;;0.70;0.30;;;22.10;96.30;;;;;;5098842;28;20992;-84
2022/06/25 12:06:50;;;;;;;0.40;0.30;;;22.00;96.70;;;;;;5099633;28;20507;-83
2022/06/25 12:09:19;;;;;;;0.40;0.30;;;22.00;96.60;;;;;;5107061;28;20438;-83
2022/06/25 12:11:55;;;;;;;0.50;0.30;;;22.10;96.50;;;;;;5106873;28;20540;-82
2022/06/25 12:14:24;;;;;;;0.47;0.40;;;22.00;96.20;;;;;;5093670;28;20515;-84
2022/06/25 12:16:52;;;;;;;0.70;0.40;;;22.00;96.60;;;;;;5102792;28;20486;-84
2022/06/25 12:19:20;;;;;;;0.60;0.40;;;22.10;97.20;;;;;;5108819;27;20463;-84
2022/06/25 12:21:48;;;;;;;0.50;0.30;;;22.20;97.20;;;;;;5097610;28;20570;-84
2022/06/25 12:24:19;;;;;;;0.40;0.30;;;22.40;97.60;;;;;;5101928;28;20443;-83
2022/06/25 12:26:53;;;;;;;0.40;0.30;;;22.30;97.50;;;;;;5097825;28;20761;-85
2022/06/25 12:29:24;;;;;;;3.03;0.33;;;22.20;97.00;;;;;;5098402;28;20797;-86
2022/06/25 12:31:59;;;;;;;0.40;0.30;;;22.00;98.50;;;;;;5103997;28;20454;-86
2022/06/25 12:34:28;;;;;;;0.50;0.30;;;21.90;97.90;;;;;;5099743;28;20457;-84
2022/06/25 12:36:56;;;;;;;1.47;0.30;;;21.60;97.50;;;;;;5104276;28;20503;-84
2022/06/25 12:39:35;;;;;;;0.40;0.30;;;21.60;98.90;;;;;;5102883;28;20438;-84
2022/06/25 12:42:08;;;;;;;0.40;0.30;;;21.50;98.60;;;;;;5102025;27;20474;-85
2022/06/25 12:44:37;;;;;;;0.40;0.30;;;21.40;98.50;;;;;;5106113;28;20454;-84
2022/06/25 12:47:07;;;;;;;0.50;0.30;;;21.30;99.10;;;;;;5106826;28;20470;-85
2022/06/25 12:49:55;;;;;;;0.50;0.50;;;21.40;98.50;;;;;;5095409;28;20465;-83
2022/06/25 12:52:26;;;;;;;0.60;0.40;;;21.40;98.70;;;;;;5097337;28;20450;-85
2022/06/25 12:54:55;;;;;;;0.47;0.33;;;21.40;98.90;;;;;;5101873;28;20510;-84
2022/06/25 12:57:29;;;;;;;0.50;0.30;;;21.30;99.10;;;;;;5105548;28;20473;-85
2022/06/25 12:59:57;;;;;;;0.50;0.30;;;21.40;99.10;;;;;;5106082;28;20812;-84
2022/06/25 13:02:24;;;;;;;0.40;0.30;;;21.40;99.60;;;;;;5099748;28;20550;-87
2022/06/25 13:04:51;;;;;;;0.40;0.40;;;21.50;99.90;;;;;;5105929;28;20476;-84
2022/06/25 13:07:19;;;;;;;0.40;0.30;;;21.60;99.90;;;;;;5106977;28;20533;-84
2022/06/25 13:09:49;;;;;;;0.40;0.30;;;21.60;99.70;;;;;;5106028;28;20467;-83
2022/06/25 13:12:16;;;;;;;0.53;0.30;;;21.60;99.80;;;;;;5101417;28;21032;-85
2022/06/25 13:14:45;;;;;;;0.40;0.37;;;21.70;99.50;;;;;;5103745;28;20511;-84